sensor_id;sensor_type;location;lat;lon;timestamp;noise_LAeq;noise_LA_min;noise_LA_max;noise_LA01;noise_LA95
64077;Laerm;51039;49.696;10.808;2023-12-29T00:01:11;42.50;41.29;43.68;;
64077;Laerm;51039;49.696;10.808;2023-12-29T00:03:36;42.49;41.25;43.94;;
64077;Laerm;51039;49.696;10.808;2023-12-29T00:06:02;42.50;41.37;43.60;;
64077;Laerm;51039;49.696;10.808;2023-12-29T00:08:28;42.51;41.44;43.57;;
64077;Laerm;51039;49.696;10.808;2023-12-29T00:10:53;42.50;41.23;43.63;;
64077;Laerm;51039;49.696;10.808;2023-12-29T00:13:18;42.49;41.36;43.71;;
64077;Laerm;51039;49.696;10.808;2023-12-29T00:15:51;42.50;41.34;43.63;;
64077;Laerm;51039;49.696;10.808;2023-12-29T00:18:16;42.51;41.36;43.71;;
64077;Laerm;51039;49.696;10.808;2023-12-29T00:20:41;42.51;41.24;43.63;;
64077;Laerm;51039;49.696;10.808;2023-12-29T00:23:07;42.52;41.35;43.59;;
64077;Laerm;51039;49.696;10.808;2023-12-29T00:25:32;42.55;41.30;43.66;;
64077;Laerm;51039;49.696;10.808;2023-12-29T00:27:57;42.57;41.44;43.64;;
64077;Laerm;51039;49.696;10.808;2023-12-29T00:30:23;42.58;41.34;43.60;;
64077;Laerm;51039;49.696;10.808;2023-12-29T00:32:48;42.60;41.34;43.64;;
64077;Laerm;51039;49.696;10.808;2023-12-29T00:35:13;42.62;41.46;43.82;;
64077;Laerm;51039;49.696;10.808;2023-12-29T00:37:38;42.62;41.19;43.76;;
64077;Laerm;51039;49.696;10.808;2023-12-29T00:40:06;42.66;41.41;43.97;;
64077;Laerm;51039;49.696;10.808;2023-12-29T00:42:31;42.68;41.53;43.75;;
64077;Laerm;51039;49.696;10.808;2023-12-29T00:44:56;42.71;41.22;44.02;;
64077;Laerm;51039;49.696;10.808;2023-12-29T00:47:22;42.62;-275.41;55.80;;
64077;Laerm;51039;49.696;10.808;2023-12-29T00:49:48;42.79;41.73;43.94;;
64077;Laerm;51039;49.696;10.808;2023-12-29T00:52:14;42.80;41.55;43.89;;
64077;Laerm;51039;49.696;10.808;2023-12-29T00:54:40;42.82;41.68;44.03;;
64077;Laerm;51039;49.696;10.808;2023-12-29T00:57:05;42.83;41.36;43.99;;
64077;Laerm;51039;49.696;10.808;2023-12-29T00:59:30;42.86;41.73;43.87;;
64077;Laerm;51039;49.696;10.808;2023-12-29T01:01:56;42.87;41.70;43.91;;
64077;Laerm;51039;49.696;10.808;2023-12-29T01:04:21;42.89;41.66;43.84;;
64077;Laerm;51039;49.696;10.808;2023-12-29T01:06:46;42.93;41.61;44.11;;
64077;Laerm;51039;49.696;10.808;2023-12-29T01:09:12;42.96;41.77;44.18;;
64077;Laerm;51039;49.696;10.808;2023-12-29T01:11:37;42.99;41.78;44.31;;
64077;Laerm;51039;49.696;10.808;2023-12-29T01:14:02;42.99;41.57;44.09;;
64077;Laerm;51039;49.696;10.808;2023-12-29T01:16:28;42.94;41.81;44.12;;
64077;Laerm;51039;49.696;10.808;2023-12-29T01:18:53;42.32;40.43;44.05;;
64077;Laerm;51039;49.696;10.808;2023-12-29T01:21:18;41.01;39.75;42.47;;
64077;Laerm;51039;49.696;10.808;2023-12-29T01:23:44;40.48;39.20;41.54;;
64077;Laerm;51039;49.696;10.808;2023-12-29T01:26:09;40.24;39.19;41.42;;
64077;Laerm;51039;49.696;10.808;2023-12-29T01:28:34;40.07;38.87;41.14;;
64077;Laerm;51039;49.696;10.808;2023-12-29T01:31:00;39.95;38.77;41.16;;
64077;Laerm;51039;49.696;10.808;2023-12-29T01:33:25;39.85;38.79;41.34;;
64077;Laerm;51039;49.696;10.808;2023-12-29T01:35:50;39.79;38.54;40.86;;
64077;Laerm;51039;49.696;10.808;2023-12-29T01:38:15;39.72;38.33;40.86;;
64077;Laerm;51039;49.696;10.808;2023-12-29T01:40:47;39.66;38.52;40.67;;
64077;Laerm;51039;49.696;10.808;2023-12-29T01:43:13;39.61;38.43;40.77;;
64077;Laerm;51039;49.696;10.808;2023-12-29T01:45:38;39.57;38.39;40.68;;
64077;Laerm;51039;49.696;10.808;2023-12-29T01:48:04;39.56;38.43;40.86;;
64077;Laerm;51039;49.696;10.808;2023-12-29T01:50:30;39.54;38.47;40.65;;
64077;Laerm;51039;49.696;10.808;2023-12-29T01:52:56;39.54;38.40;40.58;;
64077;Laerm;51039;49.696;10.808;2023-12-29T01:55:22;39.55;38.45;40.69;;
64077;Laerm;51039;49.696;10.808;2023-12-29T01:57:49;39.54;38.48;40.68;;
64077;Laerm;51039;49.696;10.808;2023-12-29T02:00:16;39.54;38.18;40.58;;
64077;Laerm;51039;49.696;10.808;2023-12-29T02:02:42;39.56;38.38;40.66;;
64077;Laerm;51039;49.696;10.808;2023-12-29T02:05:08;39.58;38.48;40.71;;
64077;Laerm;51039;49.696;10.808;2023-12-29T02:07:36;39.59;38.47;40.77;;
64077;Laerm;51039;49.696;10.808;2023-12-29T02:10:01;39.76;38.54;40.88;;
64077;Laerm;51039;49.696;10.808;2023-12-29T02:12:27;40.33;38.96;41.49;;
64077;Laerm;51039;49.696;10.808;2023-12-29T02:14:53;40.99;39.34;42.29;;
64077;Laerm;51039;49.696;10.808;2023-12-29T02:17:26;41.46;40.22;42.55;;
64077;Laerm;51039;49.696;10.808;2023-12-29T02:19:52;41.74;40.72;43.13;;
64077;Laerm;51039;49.696;10.808;2023-12-29T02:22:18;41.87;40.67;43.00;;
64077;Laerm;51039;49.696;10.808;2023-12-29T02:24:50;41.98;40.83;43.09;;
64077;Laerm;51039;49.696;10.808;2023-12-29T02:30:11;42.11;40.81;43.20;;
64077;Laerm;51039;49.696;10.808;2023-12-29T02:32:42;42.17;40.87;43.46;;
64077;Laerm;51039;49.696;10.808;2023-12-29T02:35:16;42.22;40.96;43.43;;
64077;Laerm;51039;49.696;10.808;2023-12-29T02:37:42;42.24;41.12;43.56;;
64077;Laerm;51039;49.696;10.808;2023-12-29T02:40:08;42.28;41.11;43.44;;
64077;Laerm;51039;49.696;10.808;2023-12-29T02:42:34;42.30;41.22;43.37;;
64077;Laerm;51039;49.696;10.808;2023-12-29T02:44:59;42.29;40.98;43.24;;
64077;Laerm;51039;49.696;10.808;2023-12-29T02:47:24;42.26;40.95;43.53;;
64077;Laerm;51039;49.696;10.808;2023-12-29T02:49:50;42.27;41.06;43.63;;
64077;Laerm;51039;49.696;10.808;2023-12-29T02:52:15;42.26;41.04;43.30;;
64077;Laerm;51039;49.696;10.808;2023-12-29T02:54:41;42.24;40.86;43.47;;
64077;Laerm;51039;49.696;10.808;2023-12-29T02:57:06;42.25;41.06;43.42;;
64077;Laerm;51039;49.696;10.808;2023-12-29T02:59:31;42.29;40.93;43.33;;
64077;Laerm;51039;49.696;10.808;2023-12-29T03:01:57;42.30;41.23;43.54;;
64077;Laerm;51039;49.696;10.808;2023-12-29T03:04:22;42.30;41.10;43.29;;
64077;Laerm;51039;49.696;10.808;2023-12-29T03:06:47;42.28;41.18;43.29;;
64077;Laerm;51039;49.696;10.808;2023-12-29T03:09:13;42.25;41.16;43.32;;
64077;Laerm;51039;49.696;10.808;2023-12-29T03:11:38;42.19;41.10;43.24;;
64077;Laerm;51039;49.696;10.808;2023-12-29T03:14:03;42.19;41.10;43.35;;
64077;Laerm;51039;49.696;10.808;2023-12-29T03:16:28;42.23;40.99;43.25;;
64077;Laerm;51039;49.696;10.808;2023-12-29T03:18:54;42.27;41.15;43.36;;
64077;Laerm;51039;49.696;10.808;2023-12-29T03:21:19;42.28;41.02;43.30;;
64077;Laerm;51039;49.696;10.808;2023-12-29T03:23:44;42.16;-197.76;45.61;;
64077;Laerm;51039;49.696;10.808;2023-12-29T03:26:09;42.27;41.14;43.49;;
64077;Laerm;51039;49.696;10.808;2023-12-29T03:28:35;42.25;-84.60;51.39;;
64077;Laerm;51039;49.696;10.808;2023-12-29T03:31:00;42.28;41.04;43.40;;
64077;Laerm;51039;49.696;10.808;2023-12-29T03:33:25;42.27;41.14;43.41;;
64077;Laerm;51039;49.696;10.808;2023-12-29T03:35:51;42.27;41.09;43.34;;
64077;Laerm;51039;49.696;10.808;2023-12-29T03:38:16;42.27;41.10;43.54;;
64077;Laerm;51039;49.696;10.808;2023-12-29T03:40:41;42.28;41.15;43.38;;
64077;Laerm;51039;49.696;10.808;2023-12-29T03:43:07;42.29;41.07;43.54;;
64077;Laerm;51039;49.696;10.808;2023-12-29T03:45:32;42.32;41.10;43.33;;
64077;Laerm;51039;49.696;10.808;2023-12-29T03:47:58;45.45;-334.33;79.49;;
64077;Laerm;51039;49.696;10.808;2023-12-29T03:50:23;4.93;-324.33;5.00;;
64077;Laerm;51039;49.696;10.808;2023-12-29T03:52:48;37.02;5.00;44.58;;
64077;Laerm;51039;49.696;10.808;2023-12-29T03:55:13;42.40;41.30;43.44;;
64077;Laerm;51039;49.696;10.808;2023-12-29T03:57:42;42.41;41.17;43.49;;
64077;Laerm;51039;49.696;10.808;2023-12-29T04:00:11;42.43;41.29;43.44;;
64077;Laerm;51039;49.696;10.808;2023-12-29T04:02:37;42.44;41.28;43.45;;
64077;Laerm;51039;49.696;10.808;2023-12-29T04:05:02;42.45;41.27;43.47;;
64077;Laerm;51039;49.696;10.808;2023-12-29T04:07:27;42.42;41.23;43.54;;
64077;Laerm;51039;49.696;10.808;2023-12-29T04:09:52;42.38;40.90;43.46;;
64077;Laerm;51039;49.696;10.808;2023-12-29T04:12:18;42.34;41.20;43.67;;
64077;Laerm;51039;49.696;10.808;2023-12-29T04:14:43;42.34;41.18;43.37;;
64077;Laerm;51039;49.696;10.808;2023-12-29T04:17:08;42.37;41.27;43.41;;
64077;Laerm;51039;49.696;10.808;2023-12-29T04:19:39;42.40;41.28;43.61;;
64077;Laerm;51039;49.696;10.808;2023-12-29T04:22:05;42.45;41.20;43.51;;
64077;Laerm;51039;49.696;10.808;2023-12-29T04:24:30;42.45;41.22;43.90;;
64077;Laerm;51039;49.696;10.808;2023-12-29T04:26:55;42.45;41.21;43.43;;
64077;Laerm;51039;49.696;10.808;2023-12-29T04:29:21;42.43;41.24;43.40;;
64077;Laerm;51039;49.696;10.808;2023-12-29T04:31:46;42.43;41.37;43.52;;
64077;Laerm;51039;49.696;10.808;2023-12-29T04:34:11;42.43;41.26;43.46;;
64077;Laerm;51039;49.696;10.808;2023-12-29T04:36:36;42.46;41.14;43.69;;
64077;Laerm;51039;49.696;10.808;2023-12-29T04:39:02;42.49;41.05;43.71;;
64077;Laerm;51039;49.696;10.808;2023-12-29T04:41:27;42.52;41.39;43.78;;
64077;Laerm;51039;49.696;10.808;2023-12-29T04:43:52;42.55;41.49;43.68;;
64077;Laerm;51039;49.696;10.808;2023-12-29T04:46:18;42.57;41.47;43.58;;
64077;Laerm;51039;49.696;10.808;2023-12-29T04:48:43;42.55;41.35;43.61;;
64077;Laerm;51039;49.696;10.808;2023-12-29T04:51:08;42.55;41.34;43.54;;
64077;Laerm;51039;49.696;10.808;2023-12-29T04:53:34;42.57;41.46;43.76;;
64077;Laerm;51039;49.696;10.808;2023-12-29T04:55:59;42.60;41.41;43.68;;
64077;Laerm;51039;49.696;10.808;2023-12-29T04:58:24;42.58;41.42;43.60;;
64077;Laerm;51039;49.696;10.808;2023-12-29T05:00:49;42.58;41.54;44.07;;
64077;Laerm;51039;49.696;10.808;2023-12-29T05:03:15;42.57;41.46;43.60;;
64077;Laerm;51039;49.696;10.808;2023-12-29T05:05:40;42.58;41.34;43.94;;
64077;Laerm;51039;49.696;10.808;2023-12-29T05:08:06;42.59;41.32;43.97;;
64077;Laerm;51039;49.696;10.808;2023-12-29T05:10:31;42.59;41.44;43.67;;
64077;Laerm;51039;49.696;10.808;2023-12-29T05:12:59;42.59;41.42;43.64;;
64077;Laerm;51039;49.696;10.808;2023-12-29T05:15:25;42.60;41.28;43.60;;
64077;Laerm;51039;49.696;10.808;2023-12-29T05:17:50;42.63;41.36;43.67;;
64077;Laerm;51039;49.696;10.808;2023-12-29T05:20:15;42.64;41.47;43.72;;
64077;Laerm;51039;49.696;10.808;2023-12-29T05:22:40;42.64;41.45;43.75;;
64077;Laerm;51039;49.696;10.808;2023-12-29T05:25:06;42.66;41.45;43.75;;
64077;Laerm;51039;49.696;10.808;2023-12-29T05:27:32;42.67;41.50;43.95;;
64077;Laerm;51039;49.696;10.808;2023-12-29T05:29:57;42.70;41.61;43.78;;
64077;Laerm;51039;49.696;10.808;2023-12-29T05:32:22;42.69;41.34;43.92;;
64077;Laerm;51039;49.696;10.808;2023-12-29T05:34:47;42.70;41.43;43.71;;
64077;Laerm;51039;49.696;10.808;2023-12-29T05:37:13;42.71;41.59;43.82;;
64077;Laerm;51039;49.696;10.808;2023-12-29T05:39:41;42.68;41.38;43.99;;
64077;Laerm;51039;49.696;10.808;2023-12-29T05:42:06;42.64;41.27;43.85;;
64077;Laerm;51039;49.696;10.808;2023-12-29T05:44:32;42.61;41.55;43.82;;
64077;Laerm;51039;49.696;10.808;2023-12-29T05:46:57;42.59;41.49;43.69;;
64077;Laerm;51039;49.696;10.808;2023-12-29T05:49:25;42.56;41.54;43.68;;
64077;Laerm;51039;49.696;10.808;2023-12-29T05:51:51;42.56;41.19;43.89;;
64077;Laerm;51039;49.696;10.808;2023-12-29T05:54:16;42.57;41.36;43.75;;
64077;Laerm;51039;49.696;10.808;2023-12-29T05:56:42;42.57;-41.32;44.85;;
64077;Laerm;51039;49.696;10.808;2023-12-29T05:59:08;42.58;41.28;43.68;;
64077;Laerm;51039;49.696;10.808;2023-12-29T06:01:33;42.58;41.41;43.63;;
64077;Laerm;51039;49.696;10.808;2023-12-29T06:03:58;42.58;41.43;43.72;;
64077;Laerm;51039;49.696;10.808;2023-12-29T06:06:23;42.56;41.24;43.66;;
64077;Laerm;51039;49.696;10.808;2023-12-29T06:08:49;42.54;41.45;43.59;;
64077;Laerm;51039;49.696;10.808;2023-12-29T06:11:15;42.50;41.10;43.97;;
64077;Laerm;51039;49.696;10.808;2023-12-29T06:13:41;42.47;41.32;43.53;;
64077;Laerm;51039;49.696;10.808;2023-12-29T06:16:06;42.41;41.28;43.87;;
64077;Laerm;51039;49.696;10.808;2023-12-29T06:18:31;42.35;41.11;43.42;;
64077;Laerm;51039;49.696;10.808;2023-12-29T06:20:57;42.29;41.12;43.45;;
64077;Laerm;51039;49.696;10.808;2023-12-29T06:23:22;42.24;41.16;43.37;;
64077;Laerm;51039;49.696;10.808;2023-12-29T06:25:47;42.18;40.85;43.39;;
64077;Laerm;51039;49.696;10.808;2023-12-29T06:28:13;42.11;41.02;43.35;;
64077;Laerm;51039;49.696;10.808;2023-12-29T06:30:38;42.03;40.84;43.23;;
64077;Laerm;51039;49.696;10.808;2023-12-29T06:33:03;41.98;40.86;43.28;;
64077;Laerm;51039;49.696;10.808;2023-12-29T06:35:29;41.97;40.88;43.02;;
64077;Laerm;51039;49.696;10.808;2023-12-29T06:37:54;41.97;40.71;42.92;;
64077;Laerm;51039;49.696;10.808;2023-12-29T06:40:19;41.99;40.63;42.99;;
64077;Laerm;51039;49.696;10.808;2023-12-29T06:42:45;42.02;40.95;43.19;;
64077;Laerm;51039;49.696;10.808;2023-12-29T06:45:11;42.03;40.85;43.19;;
64077;Laerm;51039;49.696;10.808;2023-12-29T06:47:36;42.03;40.77;43.21;;
64077;Laerm;51039;49.696;10.808;2023-12-29T06:50:01;41.97;40.88;43.36;;
64077;Laerm;51039;49.696;10.808;2023-12-29T06:52:28;41.91;40.67;43.03;;
64077;Laerm;51039;49.696;10.808;2023-12-29T06:54:59;41.81;40.62;42.86;;
64077;Laerm;51039;49.696;10.808;2023-12-29T06:57:24;41.75;40.61;42.98;;
64077;Laerm;51039;49.696;10.808;2023-12-29T06:59:49;41.73;40.68;42.74;;
64077;Laerm;51039;49.696;10.808;2023-12-29T07:02:14;41.79;40.57;42.90;;
64077;Laerm;51039;49.696;10.808;2023-12-29T07:04:42;41.84;40.70;42.89;;
64077;Laerm;51039;49.696;10.808;2023-12-29T07:07:07;41.91;40.89;43.20;;
64077;Laerm;51039;49.696;10.808;2023-12-29T07:09:33;42.02;40.93;43.18;;
64077;Laerm;51039;49.696;10.808;2023-12-29T07:11:58;42.10;40.76;43.08;;
64077;Laerm;51039;49.696;10.808;2023-12-29T07:14:23;42.18;41.04;43.26;;
64077;Laerm;51039;49.696;10.808;2023-12-29T07:16:49;42.24;40.99;43.37;;
64077;Laerm;51039;49.696;10.808;2023-12-29T07:19:14;42.27;41.10;43.35;;
64077;Laerm;51039;49.696;10.808;2023-12-29T07:21:39;42.30;41.22;43.49;;
64077;Laerm;51039;49.696;10.808;2023-12-29T07:24:05;42.29;41.09;43.34;;
64077;Laerm;51039;49.696;10.808;2023-12-29T07:26:32;42.31;41.02;43.45;;
64077;Laerm;51039;49.696;10.808;2023-12-29T07:28:59;42.33;41.08;43.57;;
64077;Laerm;51039;49.696;10.808;2023-12-29T07:31:24;42.33;41.15;43.43;;
64077;Laerm;51039;49.696;10.808;2023-12-29T07:33:51;42.35;41.20;43.59;;
64077;Laerm;51039;49.696;10.808;2023-12-29T07:36:16;42.37;41.05;43.46;;
64077;Laerm;51039;49.696;10.808;2023-12-29T07:38:41;42.40;41.13;43.63;;
64077;Laerm;51039;49.696;10.808;2023-12-29T07:41:08;42.48;41.15;43.57;;
64077;Laerm;51039;49.696;10.808;2023-12-29T07:43:34;42.50;41.42;43.66;;
64077;Laerm;51039;49.696;10.808;2023-12-29T07:46:01;42.54;41.36;43.75;;
64077;Laerm;51039;49.696;10.808;2023-12-29T07:48:26;42.55;41.30;43.93;;
64077;Laerm;51039;49.696;10.808;2023-12-29T07:50:51;42.54;41.34;43.68;;
64077;Laerm;51039;49.696;10.808;2023-12-29T07:53:16;42.55;41.44;43.62;;
64077;Laerm;51039;49.696;10.808;2023-12-29T07:55:43;42.52;41.18;43.59;;
64077;Laerm;51039;49.696;10.808;2023-12-29T07:58:08;42.50;41.28;43.70;;
64077;Laerm;51039;49.696;10.808;2023-12-29T08:00:35;42.48;41.37;43.57;;
64077;Laerm;51039;49.696;10.808;2023-12-29T08:03:01;42.48;41.27;43.58;;
64077;Laerm;51039;49.696;10.808;2023-12-29T08:05:26;42.48;41.19;43.68;;
64077;Laerm;51039;49.696;10.808;2023-12-29T08:07:51;42.51;41.14;43.63;;
64077;Laerm;51039;49.696;10.808;2023-12-29T08:10:16;42.54;41.46;43.61;;
64077;Laerm;51039;49.696;10.808;2023-12-29T08:12:42;42.60;41.54;43.61;;
64077;Laerm;51039;49.696;10.808;2023-12-29T08:15:07;42.65;41.52;43.81;;
64077;Laerm;51039;49.696;10.808;2023-12-29T08:17:33;42.70;41.59;43.84;;
64077;Laerm;51039;49.696;10.808;2023-12-29T08:19:58;42.75;41.56;43.87;;
64077;Laerm;51039;49.696;10.808;2023-12-29T08:22:23;42.81;41.64;43.81;;
64077;Laerm;51039;49.696;10.808;2023-12-29T08:24:48;42.89;41.64;43.97;;
64077;Laerm;51039;49.696;10.808;2023-12-29T08:27:14;42.97;41.80;44.09;;
64077;Laerm;51039;49.696;10.808;2023-12-29T08:29:40;74.21;41.87;109.37;;
64077;Laerm;51039;49.696;10.808;2023-12-29T08:32:05;43.10;42.01;44.27;;
64077;Laerm;51039;49.696;10.808;2023-12-29T08:34:31;43.14;42.00;44.47;;
64077;Laerm;51039;49.696;10.808;2023-12-29T08:36:56;43.20;41.77;44.32;;
64077;Laerm;51039;49.696;10.808;2023-12-29T08:39:22;43.24;42.09;44.26;;
64077;Laerm;51039;49.696;10.808;2023-12-29T08:41:47;43.29;42.03;44.55;;
64077;Laerm;51039;49.696;10.808;2023-12-29T08:44:14;43.34;41.84;44.51;;
64077;Laerm;51039;49.696;10.808;2023-12-29T08:46:40;43.38;42.01;44.55;;
64077;Laerm;51039;49.696;10.808;2023-12-29T08:49:05;43.39;42.38;44.46;;
64077;Laerm;51039;49.696;10.808;2023-12-29T08:51:30;43.41;42.27;44.53;;
64077;Laerm;51039;49.696;10.808;2023-12-29T08:53:55;43.42;42.17;44.56;;
64077;Laerm;51039;49.696;10.808;2023-12-29T08:56:21;43.43;42.31;44.53;;
64077;Laerm;51039;49.696;10.808;2023-12-29T08:58:46;43.47;42.39;44.56;;
64077;Laerm;51039;49.696;10.808;2023-12-29T09:01:12;43.48;42.16;44.94;;
64077;Laerm;51039;49.696;10.808;2023-12-29T09:03:37;43.48;42.45;44.77;;
64077;Laerm;51039;49.696;10.808;2023-12-29T09:06:03;43.50;41.99;44.61;;
64077;Laerm;51039;49.696;10.808;2023-12-29T09:08:29;43.54;42.05;44.78;;
64077;Laerm;51039;49.696;10.808;2023-12-29T09:10:54;43.56;42.34;44.76;;
64077;Laerm;51039;49.696;10.808;2023-12-29T09:13:20;43.63;42.49;45.10;;
64077;Laerm;51039;49.696;10.808;2023-12-29T09:15:48;43.66;42.35;45.26;;
64077;Laerm;51039;49.696;10.808;2023-12-29T09:18:13;42.80;-325.30;44.82;;
64077;Laerm;51039;49.696;10.808;2023-12-29T09:20:38;79.27;-138.50;110.65;;
64077;Laerm;51039;49.696;10.808;2023-12-29T09:23:04;43.70;42.52;44.82;;
64077;Laerm;51039;49.696;10.808;2023-12-29T09:25:30;43.71;42.62;44.93;;
64077;Laerm;51039;49.696;10.808;2023-12-29T09:27:55;43.72;42.60;44.93;;
64077;Laerm;51039;49.696;10.808;2023-12-29T09:30:20;43.71;42.32;44.96;;
64077;Laerm;51039;49.696;10.808;2023-12-29T09:32:46;43.77;42.58;44.87;;
64077;Laerm;51039;49.696;10.808;2023-12-29T09:35:11;43.95;42.72;45.21;;
64077;Laerm;51039;49.696;10.808;2023-12-29T09:37:37;44.10;42.99;45.50;;
64077;Laerm;51039;49.696;10.808;2023-12-29T09:40:02;44.20;43.01;45.36;;
64077;Laerm;51039;49.696;10.808;2023-12-29T09:42:28;44.23;42.98;45.37;;
64077;Laerm;51039;49.696;10.808;2023-12-29T09:44:55;44.28;43.18;45.48;;
64077;Laerm;51039;49.696;10.808;2023-12-29T09:47:23;44.31;43.07;45.60;;
64077;Laerm;51039;49.696;10.808;2023-12-29T09:49:49;44.38;43.23;45.47;;
64077;Laerm;51039;49.696;10.808;2023-12-29T09:52:16;44.45;43.00;45.84;;
64077;Laerm;51039;49.696;10.808;2023-12-29T09:54:44;44.47;43.13;45.83;;
64077;Laerm;51039;49.696;10.808;2023-12-29T09:57:09;44.43;43.14;48.48;;
64077;Laerm;51039;49.696;10.808;2023-12-29T09:59:35;44.38;43.16;45.54;;
64077;Laerm;51039;49.696;10.808;2023-12-29T10:02:04;44.36;43.18;45.68;;
64077;Laerm;51039;49.696;10.808;2023-12-29T10:04:30;44.34;42.95;45.76;;
64077;Laerm;51039;49.696;10.808;2023-12-29T10:06:57;44.31;43.24;45.44;;
64077;Laerm;51039;49.696;10.808;2023-12-29T10:09:26;44.28;42.88;45.36;;
64077;Laerm;51039;49.696;10.808;2023-12-29T10:11:53;44.28;43.11;45.35;;
64077;Laerm;51039;49.696;10.808;2023-12-29T10:14:24;44.25;43.10;45.36;;
64077;Laerm;51039;49.696;10.808;2023-12-29T10:17:03;44.23;43.03;45.23;;
64077;Laerm;51039;49.696;10.808;2023-12-29T10:19:37;44.20;43.02;45.27;;
64077;Laerm;51039;49.696;10.808;2023-12-29T10:24:30;44.16;42.80;45.25;;
64077;Laerm;51039;49.696;10.808;2023-12-29T10:26:55;44.16;42.81;45.15;;
64077;Laerm;51039;49.696;10.808;2023-12-29T10:29:21;44.14;42.72;45.32;;
64077;Laerm;51039;49.696;10.808;2023-12-29T10:31:46;44.13;42.56;45.28;;
64077;Laerm;51039;49.696;10.808;2023-12-29T10:34:25;44.12;42.78;45.27;;
64077;Laerm;51039;49.696;10.808;2023-12-29T10:36:59;44.09;42.88;45.38;;
64077;Laerm;51039;49.696;10.808;2023-12-29T10:39:26;44.07;42.83;45.27;;
64077;Laerm;51039;49.696;10.808;2023-12-29T10:42:07;44.05;42.87;45.08;;
64077;Laerm;51039;49.696;10.808;2023-12-29T10:44:34;44.02;42.76;45.23;;
64077;Laerm;51039;49.696;10.808;2023-12-29T10:47:10;44.01;42.67;45.18;;
64077;Laerm;51039;49.696;10.808;2023-12-29T10:49:36;44.01;42.84;45.24;;
64077;Laerm;51039;49.696;10.808;2023-12-29T10:52:14;43.99;42.78;45.21;;
64077;Laerm;51039;49.696;10.808;2023-12-29T10:54:40;43.98;42.94;45.55;;
64077;Laerm;51039;49.696;10.808;2023-12-29T10:57:05;43.98;42.63;47.86;;
64077;Laerm;51039;49.696;10.808;2023-12-29T10:59:32;43.97;42.67;45.23;;
64077;Laerm;51039;49.696;10.808;2023-12-29T11:02:01;43.97;42.74;45.03;;
64077;Laerm;51039;49.696;10.808;2023-12-29T11:04:28;43.94;42.69;45.20;;
64077;Laerm;51039;49.696;10.808;2023-12-29T11:06:53;43.92;42.62;45.12;;
64077;Laerm;51039;49.696;10.808;2023-12-29T11:09:32;43.92;42.80;44.95;;
64077;Laerm;51039;49.696;10.808;2023-12-29T11:12:01;43.93;42.75;45.04;;
64077;Laerm;51039;49.696;10.808;2023-12-29T11:14:26;43.94;42.82;45.17;;
64077;Laerm;51039;49.696;10.808;2023-12-29T11:16:54;43.94;42.74;44.91;;
64077;Laerm;51039;49.696;10.808;2023-12-29T11:19:20;43.95;42.80;45.04;;
64077;Laerm;51039;49.696;10.808;2023-12-29T11:21:46;43.95;42.73;45.30;;
64077;Laerm;51039;49.696;10.808;2023-12-29T11:24:13;43.97;42.75;45.12;;
64077;Laerm;51039;49.696;10.808;2023-12-29T11:26:39;44.03;42.88;45.11;;
64077;Laerm;51039;49.696;10.808;2023-12-29T11:29:05;44.03;42.82;45.25;;
64077;Laerm;51039;49.696;10.808;2023-12-29T11:31:31;44.02;42.47;45.06;;
64077;Laerm;51039;49.696;10.808;2023-12-29T11:34:01;44.06;42.78;45.19;;
64077;Laerm;51039;49.696;10.808;2023-12-29T11:36:33;44.24;-325.30;73.46;;
64077;Laerm;51039;49.696;10.808;2023-12-29T11:42:02;5.00;5.00;5.00;;
64077;Laerm;51039;49.696;10.808;2023-12-29T11:44:29;5.00;5.00;5.00;;
64077;Laerm;51039;49.696;10.808;2023-12-29T11:46:56;5.00;5.00;5.00;;
64077;Laerm;51039;49.696;10.808;2023-12-29T11:49:22;5.00;5.00;5.00;;
64077;Laerm;51039;49.696;10.808;2023-12-29T11:51:48;5.00;5.00;5.00;;
64077;Laerm;51039;49.696;10.808;2023-12-29T11:54:25;5.00;5.00;5.00;;
64077;Laerm;51039;49.696;10.808;2023-12-29T11:56:50;5.00;5.00;5.00;;
64077;Laerm;51039;49.696;10.808;2023-12-29T11:59:17;5.00;5.00;5.00;;
64077;Laerm;51039;49.696;10.808;2023-12-29T12:01:43;5.00;5.00;5.00;;
64077;Laerm;51039;49.696;10.808;2023-12-29T12:07:04;5.00;5.00;5.00;;
64077;Laerm;51039;49.696;10.808;2023-12-29T12:09:30;5.00;5.00;5.00;;
64077;Laerm;51039;49.696;10.808;2023-12-29T12:11:56;5.00;5.00;5.00;;
64077;Laerm;51039;49.696;10.808;2023-12-29T12:17:33;5.00;5.00;5.00;;
64077;Laerm;51039;49.696;10.808;2023-12-29T12:20:01;5.00;5.00;5.00;;
64077;Laerm;51039;49.696;10.808;2023-12-29T12:22:30;5.00;5.00;5.00;;
64077;Laerm;51039;49.696;10.808;2023-12-29T12:24:57;5.00;5.00;5.00;;
64077;Laerm;51039;49.696;10.808;2023-12-29T12:27:24;5.00;5.00;5.00;;
64077;Laerm;51039;49.696;10.808;2023-12-29T12:30:00;5.00;5.00;5.00;;
64077;Laerm;51039;49.696;10.808;2023-12-29T12:32:26;5.00;5.00;5.00;;
64077;Laerm;51039;49.696;10.808;2023-12-29T12:34:52;5.00;5.00;5.00;;
64077;Laerm;51039;49.696;10.808;2023-12-29T12:37:28;5.00;5.00;5.00;;
64077;Laerm;51039;49.696;10.808;2023-12-29T12:39:54;5.00;5.00;5.00;;
64077;Laerm;51039;49.696;10.808;2023-12-29T12:42:20;5.00;5.00;5.00;;
64077;Laerm;51039;49.696;10.808;2023-12-29T12:45:11;5.00;5.00;5.00;;
64077;Laerm;51039;49.696;10.808;2023-12-29T12:47:42;38.31;5.00;45.21;;
64077;Laerm;51039;49.696;10.808;2023-12-29T12:50:10;44.24;43.00;45.51;;
64077;Laerm;51039;49.696;10.808;2023-12-29T12:52:36;44.24;42.92;50.43;;
64077;Laerm;51039;49.696;10.808;2023-12-29T12:55:02;44.22;43.00;45.43;;
64077;Laerm;51039;49.696;10.808;2023-12-29T12:57:27;44.23;43.10;45.26;;
64077;Laerm;51039;49.696;10.808;2023-12-29T12:59:53;44.24;42.82;45.45;;
64077;Laerm;51039;49.696;10.808;2023-12-29T13:02:19;44.23;43.13;45.28;;
64077;Laerm;51039;49.696;10.808;2023-12-29T13:04:45;44.22;43.12;45.28;;
64077;Laerm;51039;49.696;10.808;2023-12-29T13:07:15;44.22;43.07;45.41;;
64077;Laerm;51039;49.696;10.808;2023-12-29T13:09:41;43.25;-329.56;45.26;;
64077;Laerm;51039;49.696;10.808;2023-12-29T13:12:13;44.24;43.12;45.31;;
64077;Laerm;51039;49.696;10.808;2023-12-29T13:14:42;44.25;-31.12;45.37;;
64077;Laerm;51039;49.696;10.808;2023-12-29T13:17:12;43.98;-323.53;45.74;;
64077;Laerm;51039;49.696;10.808;2023-12-29T13:19:37;44.29;43.14;53.73;;
64077;Laerm;51039;49.696;10.808;2023-12-29T13:22:08;30.50;-325.88;45.08;;
64077;Laerm;51039;49.696;10.808;2023-12-29T13:24:34;5.00;5.00;5.00;;
64077;Laerm;51039;49.696;10.808;2023-12-29T13:27:05;5.00;5.00;5.00;;
64077;Laerm;51039;49.696;10.808;2023-12-29T13:29:31;5.00;5.00;5.00;;
64077;Laerm;51039;49.696;10.808;2023-12-29T13:32:07;5.00;5.00;5.00;;
64077;Laerm;51039;49.696;10.808;2023-12-29T13:34:42;5.00;5.00;5.00;;
64077;Laerm;51039;49.696;10.808;2023-12-29T13:42:41;5.00;5.00;5.00;;
64077;Laerm;51039;49.696;10.808;2023-12-29T13:45:09;5.00;5.00;5.00;;
64077;Laerm;51039;49.696;10.808;2023-12-29T13:47:36;5.00;5.00;5.00;;
64077;Laerm;51039;49.696;10.808;2023-12-29T13:50:03;5.00;5.00;5.00;;